Time;durP1;ratioP1;P1;durP2;ratioP2;P2;SDS_P1;SDS_P2;PMS_P1;PMS_P2;Temp;Humidity;BMP_temperature;BMP_pressure;BME280_temperature;BME280_humidity;BME280_pressure;Samples;Min_cycle;Max_cycle;Signal;HPM_P1;HPM_P2
2022/09/05 00:02:04;;;;;;;2.55;1.98;;;;;;;21.99;46.91;100245.31;5072765;28;20053;-63
2022/09/05 00:04:58;;;;;;;2.40;2.00;;;;;;;22.00;46.93;100254.22;5072618;28;20048;-61
2022/09/05 00:07:38;;;;;;;3.08;2.10;;;;;;;22.04;46.85;100254.75;5072835;28;20538;-61
2022/09/05 00:10:40;;;;;;;4.80;2.42;;;;;;;22.04;47.06;100249.38;5072232;28;20485;-62
2022/09/05 00:13:33;;;;;;;4.63;2.22;;;;;;;22.06;47.08;100253.63;5072918;28;20405;-61
2022/09/05 00:16:12;;;;;;;2.40;2.15;;;;;;;22.03;46.99;100245.88;5071197;28;20053;-61
2022/09/05 00:18:55;;;;;;;5.00;2.50;;;;;;;22.05;47.22;100241.19;5071915;28;20046;-61
2022/09/05 00:22:24;;;;;;;4.20;2.23;;;;;;;22.04;46.58;100247.56;5072703;28;20048;-63
2022/09/05 00:25:21;;;;;;;4.03;2.33;;;;;;;22.06;46.92;100245.59;5072175;28;20455;-61
2022/09/05 00:28:04;;;;;;;;;;;;;;;22.10;46.10;100243.44;5072667;28;20139;-66
2022/09/05 00:31:19;;;;;;;3.15;2.28;;;;;;;22.10;46.55;100243.44;5072544;28;19920;-61
2022/09/05 00:34:31;;;;;;;2.35;2.13;;;;;;;22.08;46.94;100248.94;5060968;28;20098;-63
2022/09/05 00:37:25;;;;;;;2.90;2.28;;;;;;;22.07;46.60;100239.22;5071603;28;20233;-62
2022/09/05 00:39:56;;;;;;;3.35;2.10;;;;;;;22.08;46.81;100240.06;5072122;28;20420;-61
2022/09/05 00:42:44;;;;;;;3.03;2.22;;;;;;;22.06;46.66;100242.91;5070742;28;20048;-62
2022/09/05 00:45:19;;;;;;;3.28;2.50;;;;;;;22.03;46.99;100242.34;5071958;28;20052;-62
2022/09/05 00:48:15;;;;;;;7.65;2.70;;;;;;;21.97;47.32;100239.28;5070217;28;20052;-61
2022/09/05 00:50:52;;;;;;;4.20;2.65;;;;;;;21.96;47.47;100240.28;5071958;28;20052;-61
2022/09/05 00:53:29;;;;;;;5.30;2.38;;;;;;;21.97;47.76;100241.97;5071872;28;20048;-62
2022/09/05 00:56:18;;;;;;;6.90;2.97;;;;;;;21.94;47.49;100236.06;5071249;28;20044;-62
2022/09/05 00:59:22;;;;;;;3.85;2.40;;;;;;;21.88;47.09;100242.88;5071605;28;20099;-64
2022/09/05 01:01:55;;;;;;;5.18;2.50;;;;;;;21.87;47.94;100236.66;5071199;28;20052;-62
2022/09/05 01:04:50;;;;;;;4.95;2.58;;;;;;;21.82;48.03;100233.59;5070218;28;20135;-63
2022/09/05 01:07:48;;;;;;;4.28;2.47;;;;;;;21.81;48.06;100233.72;5070133;28;20044;-61
2022/09/05 01:10:48;;;;;;;3.83;2.78;;;;;;;21.80;48.60;100240.94;5071115;28;20052;-63
2022/09/05 01:13:44;;;;;;;6.65;2.53;;;;;;;21.77;48.15;100235.03;5071863;28;20401;-61
2022/09/05 01:16:29;;;;;;;3.95;2.47;;;;;;;21.81;47.98;100239.94;5071336;28;20059;-61
2022/09/05 01:19:18;;;;;;;4.43;2.65;;;;;;;21.78;48.65;100242.06;5069702;28;20056;-63
2022/09/05 01:22:13;;;;;;;5.15;2.78;;;;;;;21.77;48.62;100233.19;5069628;28;20055;-61
2022/09/05 01:25:01;;;;;;;5.90;2.53;;;;;;;21.74;48.44;100231.66;5059761;28;20055;-62
2022/09/05 01:27:53;;;;;;;5.25;2.70;;;;;;;21.75;48.82;100227.13;5071253;28;20052;-63
2022/09/05 01:30:48;;;;;;;5.03;2.72;;;;;;;21.79;48.40;100228.53;5069818;28;20074;-61
2022/09/05 01:33:24;;;;;;;3.83;2.65;;;;;;;21.80;48.46;100232.06;5069898;28;20098;-61
2022/09/05 01:36:17;;;;;;;3.70;2.55;;;;;;;21.72;48.98;100230.94;5070474;28;20049;-62
2022/09/05 01:39:35;;;;;;;3.95;2.70;;;;;;;21.71;48.76;100226.56;5070841;28;20053;-61
2022/09/05 01:42:37;;;;;;;2.85;2.45;;;;;;;21.77;48.43;100235.88;5058569;28;20130;-62
2022/09/05 01:45:25;;;;;;;7.83;2.60;;;;;;;21.68;48.83;100229.53;5071046;28;20281;-62
2022/09/05 01:48:20;;;;;;;2.50;2.30;;;;;;;21.70;48.70;100232.91;5069409;28;20122;-62
2022/09/05 01:50:48;;;;;;;2.85;2.55;;;;;;;21.67;48.81;100232.34;5070750;28;20132;-61
2022/09/05 01:53:24;;;;;;;3.20;2.35;;;;;;;21.62;49.43;100238.19;5070720;28;20143;-61
2022/09/05 01:56:06;;;;;;;6.55;2.58;;;;;;;21.60;49.19;100229.44;5070924;28;20135;-61
2022/09/05 01:58:53;;;;;;;2.60;2.17;;;;;;;21.53;49.50;100233.72;5070485;28;20049;-61
2022/09/05 02:01:26;;;;;;;4.53;2.35;;;;;;;21.53;49.91;100237.22;5070905;28;20420;-62
2022/09/05 02:04:24;;;;;;;4.05;2.30;;;;;;;21.47;49.84;100236.00;5070700;28;20078;-62
2022/09/05 02:07:13;;;;;;;3.53;2.47;;;;;;;21.49;49.86;100238.50;5069903;28;20584;-61
2022/09/05 02:10:26;;;;;;;6.40;2.70;;;;;;;21.43;49.76;100242.63;5070250;28;20049;-61
2022/09/05 02:13:02;;;;;;;4.03;2.53;;;;;;;21.42;49.84;100232.06;5069426;28;20056;-61
2022/09/05 02:15:55;;;;;;;6.13;3.08;;;;;;;21.35;49.83;100234.47;5070460;28;20060;-62
2022/09/05 02:18:53;;;;;;;5.78;3.08;;;;;;;21.33;49.48;100228.41;5069117;28;20044;-63
2022/09/05 02:21:29;;;;;;;6.40;3.35;;;;;;;21.33;49.52;100234.63;5038095;28;20053;-64
2022/09/05 02:24:07;;;;;;;5.72;3.30;;;;;;;21.29;49.56;100235.06;5050626;28;20044;-63
2022/09/05 02:26:45;;;;;;;5.65;3.42;;;;;;;21.24;49.73;100232.81;5050736;28;20418;-61
2022/09/05 02:29:34;;;;;;;6.28;3.50;;;;;;;21.18;49.79;100242.28;5050176;28;20059;-61
2022/09/05 02:32:12;;;;;;;5.72;3.30;;;;;;;21.18;50.18;100236.06;5049056;28;20056;-62
2022/09/05 02:34:53;;;;;;;8.15;3.30;;;;;;;21.16;50.30;100238.88;5055799;28;20067;-63
2022/09/05 02:37:27;;;;;;;6.85;3.70;;;;;;;21.18;50.40;100231.56;5070388;28;20052;-62
2022/09/05 02:40:17;;;;;;;6.13;3.47;;;;;;;21.19;50.42;100230.56;5069026;28;20127;-62
2022/09/05 02:43:35;;;;;;;5.28;3.60;;;;;;;21.18;50.37;100233.41;5070121;28;20106;-61
2022/09/05 02:46:52;;;;;;;7.82;3.45;;;;;;;21.19;50.35;100233.25;5070296;28;20067;-62
2022/09/05 02:49:41;;;;;;;5.88;3.35;;;;;;;21.21;50.77;100233.13;5069922;28;20129;-62
2022/09/05 02:52:31;;;;;;;5.85;3.63;;;;;;;21.25;49.91;100239.00;5069350;28;20065;-61
2022/09/05 02:55:36;;;;;;;3.63;3.03;;;;;;;21.21;50.39;100235.78;5069512;28;20045;-62
2022/09/05 02:58:57;;;;;;;5.63;3.17;;;;;;;21.20;50.36;100234.09;5069876;28;20496;-61
2022/09/05 03:01:41;;;;;;;3.80;3.20;;;;;;;21.23;50.34;100233.78;5055354;28;20057;-62
2022/09/05 03:04:17;;;;;;;3.25;2.95;;;;;;;21.20;50.33;100237.59;5068521;28;20052;-62
2022/09/05 03:07:07;;;;;;;5.10;2.88;;;;;;;21.18;50.56;100228.91;5069628;28;20052;-62
2022/09/05 03:10:03;;;;;;;5.25;3.22;;;;;;;21.17;50.20;100226.34;5068491;28;20064;-62
2022/09/05 03:13:02;;;;;;;4.45;2.95;;;;;;;21.09;51.00;100227.91;5032502;28;20056;-62
2022/09/05 03:16:05;;;;;;;4.32;2.85;;;;;;;21.07;50.75;100229.91;5069761;28;20451;-62
2022/09/05 03:18:57;;;;;;;6.03;3.25;;;;;;;21.07;50.94;100226.38;5068527;28;20048;-62
2022/09/05 03:22:02;;;;;;;5.80;3.22;;;;;;;21.05;50.97;100231.03;5073114;28;20523;-62
2022/09/05 03:24:52;;;;;;;6.38;3.28;;;;;;;21.03;50.77;100227.66;5073675;28;20064;-62
2022/09/05 03:27:47;;;;;;;6.32;3.20;;;;;;;21.06;50.46;100230.06;5073476;28;20048;-61
2022/09/05 03:30:19;;;;;;;3.80;2.63;;;;;;;21.05;51.18;100231.88;5073186;28;20844;-64
2022/09/05 03:32:58;;;;;;;3.78;3.10;;;;;;;21.03;50.77;100239.22;5072277;28;20098;-62
2022/09/05 03:35:40;;;;;;;3.65;2.80;;;;;;;21.04;51.19;100237.41;5073550;28;20093;-62
2022/09/05 03:38:34;;;;;;;3.45;3.03;;;;;;;21.02;51.20;100236.69;5072328;28;20052;-62
2022/09/05 03:41:07;;;;;;;4.03;3.20;;;;;;;21.05;51.11;100237.22;5072900;28;20052;-61
2022/09/05 03:44:21;;;;;;;5.40;3.33;;;;;;;21.00;50.75;100239.50;5073171;28;20062;-63
2022/09/05 03:47:25;;;;;;;3.10;2.75;;;;;;;21.01;51.38;100233.16;5054316;28;20052;-61
2022/09/05 03:50:05;;;;;;;2.88;2.65;;;;;;;21.01;50.86;100241.19;5072814;28;20098;-62
2022/09/05 03:53:35;;;;;;;3.65;2.88;;;;;;;21.00;50.82;100238.66;5052182;28;20053;-62
2022/09/05 03:56:45;;;;;;;5.97;2.80;;;;;;;20.95;50.73;100229.25;5053159;28;20052;-63
2022/09/05 04:00:03;;;;;;;5.50;3.03;;;;;;;20.89;51.02;100232.47;5052545;28;20099;-62
2022/09/05 04:02:34;;;;;;;3.50;2.92;;;;;;;20.90;50.55;100239.50;5051775;28;20083;-61
2022/09/05 04:05:31;;;;;;;3.35;2.78;;;;;;;20.85;51.10;100241.75;5055062;28;20070;-63
2022/09/05 04:08:27;;;;;;;4.70;3.05;;;;;;;20.84;51.21;100242.72;5071904;28;20049;-62
2022/09/05 04:11:17;;;;;;;3.85;3.05;;;;;;;20.83;50.88;100249.91;5071489;28;20493;-62
2022/09/05 04:13:50;;;;;;;7.97;2.72;;;;;;;20.80;51.06;100252.03;5071407;28;20044;-62
2022/09/05 04:16:24;;;;;;;3.75;2.80;;;;;;;20.77;51.40;100263.88;5072443;28;20049;-64
2022/09/05 04:18:55;;;;;;;7.65;3.00;;;;;;;20.74;51.54;100257.97;5070996;28;20044;-62
2022/09/05 04:21:33;;;;;;;5.68;3.15;;;;;;;20.69;51.82;100261.91;5072308;28;20059;-62
2022/09/05 04:24:27;;;;;;;5.80;2.92;;;;;;;20.64;51.82;100268.66;5071217;28;20048;-61
2022/09/05 04:27:22;;;;;;;5.28;3.00;;;;;;;20.61;51.92;100267.13;5072804;28;20102;-61
2022/09/05 04:29:58;;;;;;;3.65;2.65;;;;;;;20.62;52.04;100271.47;5072012;28;20163;-64
2022/09/05 04:32:52;;;;;;;3.30;2.90;;;;;;;20.59;52.13;100268.25;5069775;28;20071;-64
2022/09/05 04:35:25;;;;;;;3.50;2.95;;;;;;;20.55;52.10;100256.97;5072172;28;20408;-62
2022/09/05 04:38:04;;;;;;;3.90;2.95;;;;;;;20.53;52.18;100261.63;5071987;28;20045;-62
2022/09/05 04:41:02;;;;;;;3.33;2.83;;;;;;;20.48;51.99;100262.03;5071947;28;20052;-63
2022/09/05 04:43:35;;;;;;;3.85;3.00;;;;;;;20.50;52.03;100267.25;5071947;28;20055;-61
2022/09/05 04:46:27;;;;;;;14.10;2.83;;;;;;;20.47;51.84;100267.50;5070968;28;20500;-62
2022/09/05 04:49:12;;;;;;;3.40;2.88;;;;;;;20.43;52.12;100265.13;5071545;28;20293;-62
2022/09/05 04:51:59;;;;;;;4.60;2.97;;;;;;;20.40;52.44;100276.09;5070654;28;20102;-63
2022/09/05 04:55:00;;;;;;;5.35;3.05;;;;;;;20.35;52.48;100267.66;5071766;28;20049;-61
2022/09/05 04:57:33;;;;;;;4.00;3.40;;;;;;;20.34;52.46;100274.00;5071530;28;20041;-62
2022/09/05 05:00:14;;;;;;;3.58;3.05;;;;;;;20.33;52.46;100266.94;5070132;28;20052;-62
2022/09/05 05:03:13;;;;;;;3.33;3.00;;;;;;;20.31;52.46;100271.59;5071336;28;20517;-61
2022/09/05 05:06:09;;;;;;;2.95;2.63;;;;;;;20.28;52.93;100285.22;5069724;28;20048;-63
2022/09/05 05:09:07;;;;;;;4.10;2.75;;;;;;;20.25;52.88;100282.81;5066925;28;20049;-61
2022/09/05 05:11:43;;;;;;;3.42;3.10;;;;;;;20.21;53.05;100284.94;5070124;28;20067;-61
2022/09/05 05:14:47;;;;;;;4.32;3.33;;;;;;;20.22;53.18;100283.94;5070419;28;20052;-63
2022/09/05 05:17:39;;;;;;;8.88;3.53;;;;;;;20.21;52.84;100281.41;5071336;28;20049;-61
2022/09/05 05:20:28;;;;;;;3.05;2.60;;;;;;;20.20;52.89;100285.91;5069990;28;20492;-62
2022/09/05 05:23:11;;;;;;;4.85;3.17;;;;;;;20.21;52.93;100284.94;5070883;28;20557;-62
2022/09/05 05:26:00;;;;;;;4.32;3.45;;;;;;;20.15;53.26;100289.00;5069953;28;20059;-63
2022/09/05 05:28:45;;;;;;;4.20;3.40;;;;;;;20.19;53.29;100284.25;5070939;28;20045;-61
2022/09/05 05:31:21;;;;;;;3.92;3.25;;;;;;;20.17;53.09;100284.38;5069695;28;20052;-61
2022/09/05 05:33:50;;;;;;;3.42;3.13;;;;;;;20.19;53.23;100284.25;5071133;28;20447;-61
2022/09/05 05:36:27;;;;;;;3.35;2.95;;;;;;;20.16;53.53;100281.84;5069795;28;20098;-61
2022/09/05 05:39:13;;;;;;;3.08;2.58;;;;;;;20.14;53.73;100286.44;5070358;28;20123;-61
2022/09/05 05:41:40;;;;;;;18.30;3.88;;;;;;;20.21;53.15;100286.75;5069445;28;20048;-61
2022/09/05 05:44:34;;;;;;;3.70;2.97;;;;;;;20.18;53.77;100286.06;5069293;28;20075;-62
2022/09/05 05:47:08;;;;;;;4.32;3.10;;;;;;;20.23;53.73;100287.47;5070915;28;20067;-62
2022/09/05 05:49:42;;;;;;;4.50;3.35;;;;;;;20.23;54.30;100282.97;5069283;28;20502;-61
2022/09/05 05:52:33;;;;;;;4.43;2.92;;;;;;;20.26;54.35;100295.22;5069468;28;20055;-62
2022/09/05 05:55:06;;;;;;;4.03;3.33;;;;;;;20.35;53.77;100294.38;5070672;28;20048;-61
2022/09/05 05:58:10;;;;;;;8.43;3.25;;;;;;;20.40;53.71;100302.84;5050803;28;20056;-62
2022/09/05 06:00:48;;;;;;;4.38;3.20;;;;;;;20.44;54.01;100296.22;5050523;28;20048;-63
2022/09/05 06:04:08;;;;;;;5.18;3.50;;;;;;;20.44;54.93;100296.22;5050763;28;20474;-62
2022/09/05 06:06:55;;;;;;;4.47;3.35;;;;;;;20.53;54.80;100307.06;5027617;28;20049;-61
2022/09/05 06:09:41;;;;;;;3.53;2.80;;;;;;;20.57;54.79;100303.16;5049096;28;20059;-64
2022/09/05 06:13:06;;;;;;;5.85;3.03;;;;;;;20.64;55.07;100309.59;5054603;28;20048;-62
2022/09/05 06:16:30;;;;;;;7.63;3.67;;;;;;;20.70;54.95;100306.38;5069252;28;20049;-61
2022/09/05 06:19:33;;;;;;;6.00;3.20;;;;;;;20.76;55.13;100310.34;5070169;28;20135;-62
2022/09/05 06:22:44;;;;;;;3.17;2.63;;;;;;;20.84;55.35;100309.63;5070399;28;20049;-62
2022/09/05 06:25:17;;;;;;;9.25;3.08;;;;;;;20.95;54.92;100314.88;5070404;28;20098;-62
2022/09/05 06:28:12;;;;;;;4.38;3.10;;;;;;;20.99;55.51;100311.88;5070625;28;20467;-63
2022/09/05 06:31:08;;;;;;;6.03;3.03;;;;;;;21.05;55.28;100311.34;5069706;28;20045;-61
2022/09/05 06:34:40;;;;;;;5.03;2.97;;;;;;;21.16;55.23;100313.00;5050533;28;20053;-61
2022/09/05 06:37:33;;;;;;;4.18;2.85;;;;;;;21.28;55.24;100313.69;5050157;28;20051;-62
2022/09/05 06:40:17;;;;;;;5.68;3.17;;;;;;;21.33;55.77;100316.78;5039518;28;20489;-62
2022/09/05 06:42:55;;;;;;;3.13;2.60;;;;;;;21.40;55.42;100317.03;5050674;28;20049;-62
2022/09/05 06:45:30;;;;;;;4.18;2.88;;;;;;;21.48;55.44;100312.66;5050305;28;20504;-64
2022/09/05 06:48:21;;;;;;;5.22;3.15;;;;;;;21.54;55.35;100321.09;5067748;28;20049;-62
2022/09/05 06:51:16;;;;;;;5.30;2.97;;;;;;;21.62;55.21;100315.88;5068831;28;20048;-62
2022/09/05 06:53:52;;;;;;;4.53;2.58;;;;;;;21.70;55.20;100321.34;5070262;28;20052;-62
2022/09/05 06:56:45;;;;;;;5.25;2.83;;;;;;;21.71;55.32;100320.34;5073671;28;20049;-62
2022/09/05 06:59:33;;;;;;;5.80;2.90;;;;;;;21.80;55.01;100321.34;5072473;28;20044;-63
2022/09/05 07:02:18;;;;;;;7.45;2.70;;;;;;;21.90;55.24;100317.75;5073841;28;20051;-61
2022/09/05 07:05:49;;;;;;;7.43;2.75;;;;;;;21.99;55.60;100322.22;5073764;28;20475;-63
2022/09/05 07:08:26;;;;;;;6.20;2.60;;;;;;;22.15;55.62;100318.03;5051404;28;20048;-62
2022/09/05 07:11:06;;;;;;;4.00;2.72;;;;;;;22.25;55.14;100316.16;5072625;28;20063;-62
2022/09/05 07:14:02;;;;;;;3.17;2.38;;;;;;;22.34;55.31;100312.56;5074002;28;20094;-62
2022/09/05 07:16:37;;;;;;;5.50;2.70;;;;;;;22.51;54.76;100315.44;5073765;28;20798;-62
2022/09/05 07:19:26;;;;;;;4.95;2.30;;;;;;;22.58;54.22;100323.75;5073383;28;20041;-61
2022/09/05 07:22:25;;;;;;;2.33;2.13;;;;;;;22.69;54.46;100322.69;5073448;28;20048;-64
2022/09/05 07:25:17;;;;;;;2.38;2.17;;;;;;;22.84;54.21;100318.44;5073391;28;20559;-62
2022/09/05 07:27:53;;;;;;;3.13;1.90;;;;;;;22.94;54.07;100313.00;5072193;28;20497;-61
2022/09/05 07:30:45;;;;;;;2.28;1.98;;;;;;;23.04;53.57;100324.50;5073526;28;20052;-62
2022/09/05 07:33:21;;;;;;;5.30;2.10;;;;;;;23.11;53.23;100323.88;5071980;28;20064;-62
2022/09/05 07:35:50;;;;;;;2.35;2.00;;;;;;;23.20;52.95;100324.75;5072219;28;20056;-63
2022/09/05 07:38:26;;;;;;;3.20;2.00;;;;;;;23.25;53.13;100327.84;5072857;28;20048;-63
2022/09/05 07:41:27;;;;;;;5.55;2.40;;;;;;;23.33;52.37;100335.09;5072377;28;20056;-63
2022/09/05 07:44:05;;;;;;;3.75;2.10;;;;;;;23.39;52.22;100331.81;5071929;28;20477;-61
2022/09/05 07:46:36;;;;;;;3.33;2.42;;;;;;;23.48;52.03;100324.66;5073182;28;20075;-62
2022/09/05 07:49:08;;;;;;;4.85;2.13;;;;;;;23.53;52.12;100335.78;5073009;28;20064;-64
2022/09/05 07:51:39;;;;;;;3.90;2.40;;;;;;;23.60;51.66;100335.97;5073254;28;20055;-62
2022/09/05 07:54:34;;;;;;;5.65;1.88;;;;;;;23.66;51.48;100329.97;5072726;28;20048;-62
2022/09/05 07:57:31;;;;;;;3.78;2.60;;;;;;;23.73;51.39;100335.56;5073292;28;20048;-61
2022/09/05 08:00:20;;;;;;;4.22;2.15;;;;;;;23.80;51.33;100340.13;5072738;28;20131;-61
2022/09/05 08:02:53;;;;;;;2.30;1.77;;;;;;;23.87;51.36;100340.31;5071692;28;20045;-62
2022/09/05 08:05:22;;;;;;;3.00;1.85;;;;;;;23.93;51.18;100339.66;5071223;28;20405;-62
2022/09/05 08:08:05;;;;;;;2.28;1.88;;;;;;;24.01;51.23;100335.34;5072471;28;20048;-63
2022/09/05 08:10:38;;;;;;;4.00;2.05;;;;;;;24.06;51.07;100333.84;5071518;28;20051;-62
2022/09/05 08:13:41;;;;;;;3.88;1.73;;;;;;;24.16;50.89;100332.91;5071527;28;20504;-63
2022/09/05 08:16:16;;;;;;;3.95;2.10;;;;;;;24.22;50.77;100337.63;5072853;28;20052;-62
2022/09/05 08:19:03;;;;;;;2.55;1.67;;;;;;;24.28;51.00;100339.69;5072403;28;20048;-62
2022/09/05 08:21:42;;;;;;;5.00;2.00;;;;;;;24.34;50.32;100333.63;5072681;28;20044;-62
2022/09/05 08:24:22;;;;;;;4.95;2.55;;;;;;;24.43;50.13;100334.50;5072382;28;20071;-61
2022/09/05 08:27:15;;;;;;;2.92;2.30;;;;;;;24.50;50.07;100337.38;5072778;28;20059;-62
2022/09/05 08:29:52;;;;;;;;;;;;;;;24.59;50.31;100333.69;5071387;28;20052;-64
2022/09/05 08:33:06;;;;;;;1.92;1.75;;;;;;;24.70;50.30;100329.84;5071112;28;19924;-63
2022/09/05 08:36:02;;;;;;;3.00;1.95;;;;;;;24.75;50.01;100326.66;5070954;28;20059;-63
2022/09/05 08:38:39;;;;;;;2.65;2.03;;;;;;;24.85;49.44;100327.34;5071839;28;20484;-62
2022/09/05 08:41:14;;;;;;;2.45;2.10;;;;;;;24.92;49.27;100330.22;5071945;28;20604;-63
2022/09/05 08:43:49;;;;;;;3.05;1.88;;;;;;;25.03;49.95;100320.97;5072252;28;20052;-61
2022/09/05 08:46:47;;;;;;;4.90;1.80;;;;;;;25.13;49.30;100330.72;5071948;28;20484;-62
2022/09/05 08:49:38;;;;;;;3.20;1.80;;;;;;;25.22;48.97;100330.53;5071651;28;20048;-62
2022/09/05 08:52:33;;;;;;;1.85;1.67;;;;;;;25.34;48.61;100336.41;5070822;28;20056;-62
2022/09/05 08:55:24;;;;;;;2.58;1.75;;;;;;;25.47;48.41;100335.06;5070503;28;20053;-62
2022/09/05 08:58:00;;;;;;;2.88;2.05;;;;;;;25.59;48.66;100322.06;5070774;28;20058;-61
2022/09/05 09:00:36;;;;;;;2.13;1.40;;;;;;;25.71;47.86;100326.09;5070152;28;20135;-63
2022/09/05 09:03:24;;;;;;;5.20;1.83;;;;;;;25.83;48.57;100325.72;5070677;28;20130;-62
2022/09/05 09:05:54;;;;;;;1.80;1.50;;;;;;;25.97;48.22;100316.88;5071581;28;20048;-62
2022/09/05 09:09:05;;;;;;;1.85;1.52;;;;;;;26.08;48.00;100310.25;5071392;28;20500;-61
2022/09/05 09:12:10;;;;;;;2.30;1.23;;;;;;;26.21;47.87;100309.72;5071456;28;20051;-62
2022/09/05 09:14:54;;;;;;;4.97;1.70;;;;;;;26.36;47.37;100311.66;5071716;28;20102;-61
2022/09/05 09:17:30;;;;;;;1.83;1.55;;;;;;;26.50;46.91;100305.50;5069499;28;20051;-61
2022/09/05 09:20:13;;;;;;;4.45;1.50;;;;;;;26.62;47.19;100307.78;5071096;28;20041;-63
2022/09/05 09:22:43;;;;;;;4.95;1.20;;;;;;;26.77;46.32;100307.84;5070117;28;20059;-62
2022/09/05 09:25:19;;;;;;;2.42;1.55;;;;;;;26.91;46.23;100303.50;5071426;28;20045;-62
2022/09/05 09:27:54;;;;;;;2.05;1.25;;;;;;;27.04;45.59;100295.66;5070020;28;20086;-63
2022/09/05 09:30:53;;;;;;;2.28;1.10;;;;;;;27.19;45.08;100303.78;5069773;28;20106;-62
2022/09/05 09:33:35;;;;;;;1.95;1.30;;;;;;;27.30;44.99;100299.78;5071353;28;20049;-62
2022/09/05 09:36:24;;;;;;;1.52;1.25;;;;;;;27.42;44.85;100305.56;5071089;28;20396;-61
2022/09/05 09:39:12;;;;;;;1.40;1.20;;;;;;;27.55;43.34;100298.69;5069717;28;20052;-62
2022/09/05 09:42:16;;;;;;;1.83;1.20;;;;;;;27.70;43.72;100298.72;5071279;28;20087;-62
2022/09/05 09:45:30;;;;;;;1.65;1.02;;;;;;;27.82;43.52;100304.47;5071020;28;20088;-63
2022/09/05 09:48:09;;;;;;;1.95;1.40;;;;;;;27.96;43.97;100292.78;5044965;28;20106;-61
2022/09/05 09:51:01;;;;;;;1.20;1.10;;;;;;;28.03;43.92;100298.28;5071020;28;20516;-62
2022/09/05 09:53:46;;;;;;;1.15;1.10;;;;;;;28.20;42.73;100289.94;5070841;28;20056;-61
2022/09/05 09:56:29;;;;;;;1.63;1.52;;;;;;;28.31;42.77;100302.16;5070916;28;20538;-63
2022/09/05 09:59:30;;;;;;;1.52;1.15;;;;;;;28.38;42.53;100292.25;5070561;28;20058;-63
2022/09/05 10:02:06;;;;;;;1.75;1.17;;;;;;;28.52;42.31;100285.06;5070599;28;20048;-62
2022/09/05 10:05:30;;;;;;;1.48;1.05;;;;;;;28.63;42.92;100281.00;5071104;28;20048;-62
2022/09/05 10:08:40;;;;;;;1.30;1.20;;;;;;;28.79;43.23;100281.78;5069483;28;20049;-62
2022/09/05 10:12:04;;;;;;;1.15;1.00;;;;;;;28.95;42.90;100281.53;5070782;28;20056;-62
2022/09/05 10:14:59;;;;;;;1.55;1.10;;;;;;;29.13;41.56;100285.63;5070560;28;20052;-63
2022/09/05 10:18:08;;;;;;;2.42;1.30;;;;;;;29.31;41.49;100276.16;5070752;28;20045;-62
2022/09/05 10:20:38;;;;;;;1.20;1.10;;;;;;;29.45;41.32;100272.47;5070113;28;20059;-63
2022/09/05 10:23:29;;;;;;;1.13;0.95;;;;;;;29.55;41.13;100269.44;5070586;28;20114;-62
2022/09/05 10:26:20;;;;;;;1.15;0.90;;;;;;;29.69;40.15;100266.78;5070734;28;20056;-62
2022/09/05 10:29:10;;;;;;;1.30;0.90;;;;;;;29.81;40.95;100269.75;5071417;28;20052;-65
2022/09/05 10:32:12;;;;;;;2.50;1.10;;;;;;;29.94;39.38;100268.97;5074588;28;20064;-61
2022/09/05 10:34:58;;;;;;;1.10;0.80;;;;;;;30.08;40.40;100272.56;5074737;28;20079;-62
2022/09/05 10:37:51;;;;;;;2.53;0.80;;;;;;;30.19;40.99;100269.28;5074800;28;20165;-64
2022/09/05 10:40:22;;;;;;;1.27;0.90;;;;;;;30.28;39.37;100268.03;5074168;28;20056;-62
2022/09/05 10:42:57;;;;;;;1.30;1.05;;;;;;;30.37;39.02;100267.84;5074491;28;20059;-64
2022/09/05 10:45:39;;;;;;;1.48;1.02;;;;;;;30.49;39.09;100262.66;5074423;28;20044;-61
2022/09/05 10:48:47;;;;;;;2.65;1.17;;;;;;;30.59;40.15;100257.63;5074210;28;20056;-63
2022/09/05 10:51:31;;;;;;;1.27;1.05;;;;;;;30.77;37.57;100254.34;5054689;28;20083;-63
2022/09/05 10:54:23;;;;;;;4.95;1.10;;;;;;;30.91;37.56;100255.13;5072855;28;20135;-62
2022/09/05 10:57:12;;;;;;;0.93;0.80;;;;;;;31.08;36.70;100250.13;5073018;28;20071;-62
2022/09/05 11:00:19;;;;;;;0.73;0.73;;;;;;;31.27;37.55;100249.44;5073683;28;20488;-62
2022/09/05 11:03:12;;;;;;;0.80;0.80;;;;;;;31.58;37.31;100235.13;5074118;28;20056;-62
2022/09/05 11:06:07;;;;;;;1.05;0.90;;;;;;;31.90;37.29;100234.38;5074053;28;20048;-62
2022/09/05 11:08:52;;;;;;;1.00;0.88;;;;;;;32.37;37.02;100228.63;5072498;28;20056;-63
2022/09/05 11:11:25;;;;;;;2.47;1.02;;;;;;;32.98;37.43;100240.94;5073833;28;20713;-62
2022/09/05 11:14:18;;;;;;;1.02;0.75;;;;;;;33.65;36.08;100237.50;5073702;28;20045;-63
2022/09/05 11:16:59;;;;;;;1.27;0.88;;;;;;;34.40;34.53;100237.31;5073659;28;20135;-64
2022/09/05 11:19:43;;;;;;;0.75;0.75;;;;;;;35.01;33.37;100219.84;5072135;28;20598;-63
2022/09/05 11:22:12;;;;;;;0.80;0.80;;;;;;;35.45;32.12;100229.56;5072345;28;20489;-64
2022/09/05 11:24:54;;;;;;;1.52;0.77;;;;;;;35.64;31.07;100218.41;5073584;28;20060;-63
2022/09/05 11:27:32;;;;;;;0.97;0.90;;;;;;;35.70;31.75;100220.22;5072400;28;20404;-63
2022/09/05 11:30:04;;;;;;;0.80;0.70;;;;;;;35.89;30.90;100222.75;5073168;28;20759;-63
2022/09/05 11:32:51;;;;;;;;;;;;;;;36.10;34.75;100219.31;5073887;28;20489;-63
2022/09/05 11:35:45;;;;;;;0.77;0.77;;;;;;;36.66;31.30;100212.28;5072462;28;19928;-63
2022/09/05 11:39:06;;;;;;;1.25;0.75;;;;;;;37.19;31.57;100216.63;5072536;28;20469;-62
2022/09/05 11:42:01;;;;;;;0.80;0.80;;;;;;;37.84;30.78;100215.97;5071689;28;20049;-64
2022/09/05 11:44:35;;;;;;;0.82;0.80;;;;;;;38.34;29.47;100224.16;5073260;28;20131;-62
2022/09/05 11:47:16;;;;;;;0.73;0.73;;;;;;;38.84;29.24;100209.09;5071999;28;20048;-63
2022/09/05 11:50:14;;;;;;;1.23;0.77;;;;;;;39.44;27.77;100218.22;5072851;28;20479;-63
2022/09/05 11:52:43;;;;;;;1.23;0.82;;;;;;;39.85;26.30;100203.72;5073087;28;20559;-64
2022/09/05 11:55:38;;;;;;;1.10;0.82;;;;;;;39.88;26.76;100203.19;5073111;28;20053;-62
2022/09/05 11:58:28;;;;;;;1.88;0.98;;;;;;;39.77;24.64;100205.09;5072952;28;20051;-63
2022/09/05 12:01:33;;;;;;;1.75;1.10;;;;;;;39.51;25.38;100199.53;5072759;28;20109;-63
2022/09/05 12:04:42;;;;;;;1.42;0.70;;;;;;;39.30;26.40;100209.63;5072946;28;20049;-62
2022/09/05 12:07:39;;;;;;;0.50;0.50;;;;;;;39.34;27.40;100200.56;5072704;28;20745;-63
2022/09/05 12:10:17;;;;;;;0.82;0.70;;;;;;;39.64;25.83;100197.38;5072676;28;20052;-64
2022/09/05 12:13:30;;;;;;;0.73;0.60;;;;;;;39.97;25.66;100195.22;5072686;28;20504;-63
2022/09/05 12:16:16;;;;;;;1.48;0.77;;;;;;;40.30;24.87;100195.75;5072770;28;20127;-63
2022/09/05 12:19:15;;;;;;;0.68;0.60;;;;;;;40.59;24.74;100197.13;5072527;28;20447;-62
2022/09/05 12:22:23;;;;;;;1.02;0.80;;;;;;;40.71;25.65;100192.13;5072427;28;20704;-63
2022/09/05 12:25:11;;;;;;;0.80;0.80;;;;;;;40.84;22.80;100187.94;5037840;28;20080;-63
2022/09/05 12:28:12;;;;;;;0.90;0.70;;;;;;;40.94;24.34;100184.34;5072342;28;20389;-63
2022/09/05 12:31:20;;;;;;;2.53;0.70;;;;;;;40.99;23.49;100186.28;5071394;28;20110;-62
2022/09/05 12:34:12;;;;;;;1.25;0.90;;;;;;;40.89;22.07;100187.16;5071437;28;20464;-63
2022/09/05 12:37:02;;;;;;;0.70;0.70;;;;;;;40.66;22.10;100186.63;5071015;28;20048;-63
2022/09/05 12:40:10;;;;;;;0.70;0.70;;;;;;;40.44;23.60;100184.19;5071796;28;20499;-63
2022/09/05 12:43:03;;;;;;;1.02;0.70;;;;;;;40.47;22.95;100184.44;5071906;28;20102;-62
2022/09/05 12:46:46;;;;;;;0.63;0.63;;;;;;;40.58;24.82;100182.50;5070917;28;20471;-63
2022/09/05 12:49:31;;;;;;;3.20;1.10;;;;;;;40.94;24.26;100178.00;5052007;28;20052;-64
2022/09/05 12:52:05;;;;;;;1.05;0.60;;;;;;;41.33;22.98;100179.25;5069723;28;20523;-63
2022/09/05 12:54:53;;;;;;;0.85;0.70;;;;;;;41.68;23.26;100160.78;5070783;28;20098;-63
2022/09/05 12:57:27;;;;;;;1.60;0.70;;;;;;;42.13;21.33;100166.25;5071974;28;20087;-64
2022/09/05 13:00:23;;;;;;;0.77;0.52;;;;;;;42.58;21.45;100170.78;5071843;28;20133;-64
2022/09/05 13:03:22;;;;;;;2.08;0.77;;;;;;;43.03;20.54;100167.81;5071568;28;20634;-62
2022/09/05 13:06:19;;;;;;;1.02;0.75;;;;;;;43.47;19.56;100168.63;5071124;28;20084;-64
2022/09/05 13:08:57;;;;;;;2.53;0.85;;;;;;;43.81;19.57;100155.59;5071489;28;20060;-63
2022/09/05 13:11:28;;;;;;;2.15;0.57;;;;;;;44.11;19.52;100156.22;5071701;28;20122;-62